sensor_id;sensor_type;location;lat;lon;timestamp;pressure;altitude;pressure_sealevel;temperature;humidity
15477;BME280;7840;42.702;23.296;2023-01-09T00:02:27;95378.03;;;0.38;100.00
15477;BME280;7840;42.702;23.296;2023-01-09T00:04:54;95373.63;;;0.39;100.00
15477;BME280;7840;42.702;23.296;2023-01-09T00:07:22;95375.28;;;0.17;100.00
15477;BME280;7840;42.702;23.296;2023-01-09T00:09:49;95374.50;;;0.31;100.00
15477;BME280;7840;42.702;23.296;2023-01-09T00:12:17;95372.13;;;0.44;100.00
15477;BME280;7840;42.702;23.296;2023-01-09T00:14:45;95368.75;;;0.21;100.00
15477;BME280;7840;42.702;23.296;2023-01-09T00:17:16;95362.41;;;0.38;100.00
15477;BME280;7840;42.702;23.296;2023-01-09T00:19:51;95362.50;;;0.45;100.00
15477;BME280;7840;42.702;23.296;2023-01-09T00:22:19;95363.09;;;0.32;100.00
15477;BME280;7840;42.702;23.296;2023-01-09T00:24:57;95358.47;;;0.42;100.00
15477;BME280;7840;42.702;23.296;2023-01-09T00:27:28;95365.28;;;0.43;100.00
15477;BME280;7840;42.702;23.296;2023-01-09T00:29:56;95366.13;;;0.21;100.00
15477;BME280;7840;42.702;23.296;2023-01-09T00:32:24;95368.09;;;-0.04;100.00
15477;BME280;7840;42.702;23.296;2023-01-09T00:34:53;95366.31;;;-0.04;100.00
15477;BME280;7840;42.702;23.296;2023-01-09T00:37:21;95364.06;;;-0.07;100.00
15477;BME280;7840;42.702;23.296;2023-01-09T00:39:48;95365.81;;;-0.30;100.00
15477;BME280;7840;42.702;23.296;2023-01-09T00:42:19;95365.09;;;-0.16;100.00
15477;BME280;7840;42.702;23.296;2023-01-09T00:44:51;95359.81;;;-0.08;100.00
15477;BME280;7840;42.702;23.296;2023-01-09T00:47:23;95361.56;;;-0.23;100.00
15477;BME280;7840;42.702;23.296;2023-01-09T00:49:57;95363.56;;;-0.33;100.00
15477;BME280;7840;42.702;23.296;2023-01-09T00:52:26;95352.38;;;-0.34;100.00
15477;BME280;7840;42.702;23.296;2023-01-09T00:54:57;95351.44;;;-0.18;100.00
15477;BME280;7840;42.702;23.296;2023-01-09T00:57:28;95354.34;;;-0.13;100.00
15477;BME280;7840;42.702;23.296;2023-01-09T00:59:56;95347.72;;;-0.01;100.00
15477;BME280;7840;42.702;23.296;2023-01-09T01:02:27;95351.06;;;-0.07;100.00
15477;BME280;7840;42.702;23.296;2023-01-09T01:04:59;95351.97;;;0.01;100.00
15477;BME280;7840;42.702;23.296;2023-01-09T01:07:47;95353.84;;;0.07;100.00
15477;BME280;7840;42.702;23.296;2023-01-09T01:10:18;95349.69;;;-0.03;100.00
15477;BME280;7840;42.702;23.296;2023-01-09T01:12:46;95342.75;;;0.13;100.00
15477;BME280;7840;42.702;23.296;2023-01-09T01:15:15;95344.28;;;0.07;100.00
15477;BME280;7840;42.702;23.296;2023-01-09T01:17:43;95345.41;;;0.05;100.00
15477;BME280;7840;42.702;23.296;2023-01-09T01:20:14;95341.47;;;0.09;100.00
15477;BME280;7840;42.702;23.296;2023-01-09T01:22:42;95343.09;;;0.10;100.00
15477;BME280;7840;42.702;23.296;2023-01-09T01:25:12;95341.47;;;-0.37;100.00
15477;BME280;7840;42.702;23.296;2023-01-09T01:27:40;95334.03;;;-0.48;100.00
15477;BME280;7840;42.702;23.296;2023-01-09T01:32:35;95335.56;;;-0.08;100.00
15477;BME280;7840;42.702;23.296;2023-01-09T01:35:02;95323.38;;;-0.08;100.00
15477;BME280;7840;42.702;23.296;2023-01-09T01:37:41;95318.13;;;0.01;100.00
15477;BME280;7840;42.702;23.296;2023-01-09T01:40:15;95318.75;;;0.03;100.00
15477;BME280;7840;42.702;23.296;2023-01-09T01:42:53;95321.34;;;0.03;100.00
15477;BME280;7840;42.702;23.296;2023-01-09T01:45:40;95314.09;;;0.13;100.00
15477;BME280;7840;42.702;23.296;2023-01-09T01:48:10;95308.38;;;0.17;100.00
15477;BME280;7840;42.702;23.296;2023-01-09T01:50:42;95301.28;;;0.26;100.00
15477;BME280;7840;42.702;23.296;2023-01-09T01:53:15;95293.94;;;0.30;100.00
15477;BME280;7840;42.702;23.296;2023-01-09T01:55:49;95297.13;;;0.17;100.00
15477;BME280;7840;42.702;23.296;2023-01-09T01:58:20;95299.16;;;0.07;100.00
15477;BME280;7840;42.702;23.296;2023-01-09T02:00:48;95298.94;;;0.16;100.00
15477;BME280;7840;42.702;23.296;2023-01-09T02:03:18;95297.13;;;0.17;100.00
15477;BME280;7840;42.702;23.296;2023-01-09T02:05:50;95282.69;;;0.14;100.00
15477;BME280;7840;42.702;23.296;2023-01-09T02:08:20;95285.81;;;0.10;100.00
15477;BME280;7840;42.702;23.296;2023-01-09T02:10:49;95276.66;;;0.14;100.00
15477;BME280;7840;42.702;23.296;2023-01-09T02:13:19;95282.50;;;0.16;100.00
15477;BME280;7840;42.702;23.296;2023-01-09T02:16:13;95283.16;;;-0.28;100.00
15477;BME280;7840;42.702;23.296;2023-01-09T02:18:47;95291.63;;;-0.26;100.00
15477;BME280;7840;42.702;23.296;2023-01-09T02:21:39;95290.22;;;-0.14;100.00
15477;BME280;7840;42.702;23.296;2023-01-09T02:24:37;95291.63;;;-0.26;100.00
15477;BME280;7840;42.702;23.296;2023-01-09T02:27:45;95288.84;;;-0.24;100.00
15477;BME280;7840;42.702;23.296;2023-01-09T02:30:30;95279.59;;;-0.27;100.00
15477;BME280;7840;42.702;23.296;2023-01-09T02:33:10;95286.44;;;-0.26;100.00
15477;BME280;7840;42.702;23.296;2023-01-09T02:35:56;95276.03;;;-0.26;100.00
15477;BME280;7840;42.702;23.296;2023-01-09T02:38:32;95278.06;;;-0.21;100.00
15477;BME280;7840;42.702;23.296;2023-01-09T02:41:09;95270.44;;;-0.23;100.00
15477;BME280;7840;42.702;23.296;2023-01-09T02:43:39;95263.94;;;-0.19;100.00
15477;BME280;7840;42.702;23.296;2023-01-09T02:46:17;95266.41;;;-0.25;100.00
15477;BME280;7840;42.702;23.296;2023-01-09T02:48:46;95269.19;;;-0.27;100.00
15477;BME280;7840;42.702;23.296;2023-01-09T02:51:20;95263.41;;;-0.37;100.00
15477;BME280;7840;42.702;23.296;2023-01-09T02:54:11;95266.31;;;-0.32;100.00
15477;BME280;7840;42.702;23.296;2023-01-09T02:56:56;95265.25;;;-0.23;100.00
15477;BME280;7840;42.702;23.296;2023-01-09T02:59:28;95264.09;;;-0.20;100.00
15477;BME280;7840;42.702;23.296;2023-01-09T03:02:12;95274.41;;;-0.27;100.00
15477;BME280;7840;42.702;23.296;2023-01-09T03:04:49;95259.72;;;-0.20;100.00
15477;BME280;7840;42.702;23.296;2023-01-09T03:07:24;95267.44;;;-0.12;100.00
15477;BME280;7840;42.702;23.296;2023-01-09T03:10:01;95262.56;;;-0.15;100.00
15477;BME280;7840;42.702;23.296;2023-01-09T03:12:32;95269.06;;;-0.11;100.00
15477;BME280;7840;42.702;23.296;2023-01-09T03:15:02;95265.13;;;-0.07;100.00
15477;BME280;7840;42.702;23.296;2023-01-09T03:17:37;95266.28;;;-0.09;100.00
15477;BME280;7840;42.702;23.296;2023-01-09T03:20:08;95271.25;;;-0.22;100.00
15477;BME280;7840;42.702;23.296;2023-01-09T03:22:42;95278.94;;;-0.29;100.00
15477;BME280;7840;42.702;23.296;2023-01-09T03:25:14;95275.75;;;-0.62;100.00
15477;BME280;7840;42.702;23.296;2023-01-09T03:27:43;95263.59;;;-0.62;100.00
15477;BME280;7840;42.702;23.296;2023-01-09T03:30:14;95265.16;;;-0.52;100.00
15477;BME280;7840;42.702;23.296;2023-01-09T03:32:43;95267.56;;;-0.74;100.00
15477;BME280;7840;42.702;23.296;2023-01-09T03:35:10;95268.00;;;-0.93;100.00
15477;BME280;7840;42.702;23.296;2023-01-09T03:37:38;95260.75;;;-0.75;100.00
15477;BME280;7840;42.702;23.296;2023-01-09T03:40:14;95249.28;;;-0.66;100.00
15477;BME280;7840;42.702;23.296;2023-01-09T03:42:41;95257.47;;;-0.77;100.00
15477;BME280;7840;42.702;23.296;2023-01-09T03:45:19;95254.44;;;-0.58;100.00
15477;BME280;7840;42.702;23.296;2023-01-09T03:48:05;95256.00;;;-0.48;100.00
15477;BME280;7840;42.702;23.296;2023-01-09T03:50:32;95263.28;;;-0.44;100.00
15477;BME280;7840;42.702;23.296;2023-01-09T03:53:00;95267.31;;;-0.41;100.00
15477;BME280;7840;42.702;23.296;2023-01-09T03:55:28;95264.91;;;-0.43;100.00
15477;BME280;7840;42.702;23.296;2023-01-09T03:57:56;95270.41;;;-0.38;100.00
15477;BME280;7840;42.702;23.296;2023-01-09T04:02:50;95265.13;;;-0.30;100.00
15477;BME280;7840;42.702;23.296;2023-01-09T04:05:19;95265.38;;;-0.39;100.00
15477;BME280;7840;42.702;23.296;2023-01-09T04:07:49;95265.38;;;-0.39;100.00
15477;BME280;7840;42.702;23.296;2023-01-09T04:10:34;95256.91;;;-0.41;100.00
15477;BME280;7840;42.702;23.296;2023-01-09T04:13:12;95256.91;;;-0.87;100.00
15477;BME280;7840;42.702;23.296;2023-01-09T04:15:52;95253.91;;;-0.76;100.00
15477;BME280;7840;42.702;23.296;2023-01-09T04:18:31;95259.34;;;-0.63;100.00
15477;BME280;7840;42.702;23.296;2023-01-09T04:21:00;95252.13;;;-0.52;100.00
15477;BME280;7840;42.702;23.296;2023-01-09T04:23:28;95262.00;;;-0.71;100.00
15477;BME280;7840;42.702;23.296;2023-01-09T04:25:55;95253.69;;;-0.89;100.00
15477;BME280;7840;42.702;23.296;2023-01-09T04:28:23;95252.53;;;-0.64;100.00
15477;BME280;7840;42.702;23.296;2023-01-09T04:30:51;95247.56;;;-0.50;100.00
15477;BME280;7840;42.702;23.296;2023-01-09T04:33:18;95254.78;;;-0.38;100.00
15477;BME280;7840;42.702;23.296;2023-01-09T04:35:46;95249.69;;;-0.31;100.00
15477;BME280;7840;42.702;23.296;2023-01-09T04:38:21;95246.19;;;-0.38;100.00
15477;BME280;7840;42.702;23.296;2023-01-09T04:41:04;95246.50;;;-0.41;100.00
15477;BME280;7840;42.702;23.296;2023-01-09T04:43:31;95247.19;;;-0.93;100.00
15477;BME280;7840;42.702;23.296;2023-01-09T04:45:59;95238.53;;;-0.86;100.00
15477;BME280;7840;42.702;23.296;2023-01-09T04:48:52;95241.44;;;-0.58;100.00
15477;BME280;7840;42.702;23.296;2023-01-09T04:51:20;95242.13;;;-0.64;100.00
15477;BME280;7840;42.702;23.296;2023-01-09T04:54:00;95240.81;;;-0.91;100.00
15477;BME280;7840;42.702;23.296;2023-01-09T04:56:28;95244.16;;;-1.05;100.00
15477;BME280;7840;42.702;23.296;2023-01-09T04:58:56;95234.97;;;-1.16;100.00
15477;BME280;7840;42.702;23.296;2023-01-09T05:01:24;95236.59;;;-1.15;100.00
15477;BME280;7840;42.702;23.296;2023-01-09T05:03:51;95234.66;;;-1.21;100.00
15477;BME280;7840;42.702;23.296;2023-01-09T05:06:19;95240.78;;;-1.14;100.00
15477;BME280;7840;42.702;23.296;2023-01-09T05:08:52;95237.13;;;-0.96;100.00
15477;BME280;7840;42.702;23.296;2023-01-09T05:11:35;95226.28;;;-0.77;100.00
15477;BME280;7840;42.702;23.296;2023-01-09T05:14:04;95233.69;;;-0.66;100.00
15477;BME280;7840;42.702;23.296;2023-01-09T05:16:33;95238.22;;;-0.60;100.00
15477;BME280;7840;42.702;23.296;2023-01-09T05:19:01;95246.63;;;-0.58;100.00
15477;BME280;7840;42.702;23.296;2023-01-09T05:21:28;95240.44;;;-0.57;100.00
15477;BME280;7840;42.702;23.296;2023-01-09T05:23:58;95250.16;;;-0.50;100.00
15477;BME280;7840;42.702;23.296;2023-01-09T05:39:58;95234.44;;;-1.11;100.00
15477;BME280;7840;42.702;23.296;2023-01-09T05:42:45;95224.53;;;-1.07;100.00
15477;BME280;7840;42.702;23.296;2023-01-09T05:45:37;95227.06;;;-0.99;100.00
15477;BME280;7840;42.702;23.296;2023-01-09T05:48:15;95224.25;;;-0.90;100.00
15477;BME280;7840;42.702;23.296;2023-01-09T05:50:55;95220.50;;;-0.87;100.00
15477;BME280;7840;42.702;23.296;2023-01-09T05:53:24;95214.56;;;-0.96;100.00
15477;BME280;7840;42.702;23.296;2023-01-09T05:55:58;95220.84;;;-0.90;100.00
15477;BME280;7840;42.702;23.296;2023-01-09T05:58:39;95224.34;;;-0.75;100.00
15477;BME280;7840;42.702;23.296;2023-01-09T06:01:10;95228.94;;;-0.85;100.00
15477;BME280;7840;42.702;23.296;2023-01-09T06:03:39;95231.69;;;-1.09;100.00
15477;BME280;7840;42.702;23.296;2023-01-09T06:06:14;95214.13;;;-1.07;100.00
15477;BME280;7840;42.702;23.296;2023-01-09T06:09:13;95211.59;;;-0.70;100.00
15477;BME280;7840;42.702;23.296;2023-01-09T06:11:57;95206.41;;;-0.47;100.00
15477;BME280;7840;42.702;23.296;2023-01-09T06:14:49;95203.47;;;-0.29;100.00
15477;BME280;7840;42.702;23.296;2023-01-09T06:17:20;95200.09;;;-0.15;100.00
15477;BME280;7840;42.702;23.296;2023-01-09T06:19:49;95205.31;;;-0.15;100.00
15477;BME280;7840;42.702;23.296;2023-01-09T06:22:38;95213.09;;;-0.15;100.00
15477;BME280;7840;42.702;23.296;2023-01-09T06:25:08;95209.00;;;-0.09;100.00
15477;BME280;7840;42.702;23.296;2023-01-09T06:28:04;95209.69;;;-0.15;100.00
15477;BME280;7840;42.702;23.296;2023-01-09T06:30:33;95204.06;;;-0.19;100.00
15477;BME280;7840;42.702;23.296;2023-01-09T06:33:16;95211.59;;;-0.09;100.00
15477;BME280;7840;42.702;23.296;2023-01-09T06:36:21;95208.38;;;0.04;100.00
15477;BME280;7840;42.702;23.296;2023-01-09T06:38:49;95204.88;;;-0.04;100.00
15477;BME280;7840;42.702;23.296;2023-01-09T06:41:20;95210.72;;;-0.02;100.00
15477;BME280;7840;42.702;23.296;2023-01-09T06:43:49;95209.59;;;-0.22;100.00
15477;BME280;7840;42.702;23.296;2023-01-09T06:46:17;95209.09;;;-0.03;100.00
15477;BME280;7840;42.702;23.296;2023-01-09T06:48:53;95209.50;;;-0.14;100.00
15477;BME280;7840;42.702;23.296;2023-01-09T06:51:27;95218.53;;;0.13;100.00
15477;BME280;7840;42.702;23.296;2023-01-09T06:54:03;95206.44;;;0.35;100.00
15477;BME280;7840;42.702;23.296;2023-01-09T06:56:50;95204.97;;;0.47;100.00
15477;BME280;7840;42.702;23.296;2023-01-09T06:59:50;95207.50;;;0.70;100.00
15477;BME280;7840;42.702;23.296;2023-01-09T07:02:32;95205.91;;;1.05;100.00
15477;BME280;7840;42.702;23.296;2023-01-09T07:05:00;95205.72;;;1.28;100.00
15477;BME280;7840;42.702;23.296;2023-01-09T07:07:47;95206.91;;;1.47;100.00
15477;BME280;7840;42.702;23.296;2023-01-09T07:10:36;95211.13;;;1.70;100.00
15477;BME280;7840;42.702;23.296;2023-01-09T07:13:03;95207.94;;;1.96;100.00
15477;BME280;7840;42.702;23.296;2023-01-09T07:15:33;95201.84;;;2.16;100.00
15477;BME280;7840;42.702;23.296;2023-01-09T07:18:00;95202.91;;;1.94;100.00
15477;BME280;7840;42.702;23.296;2023-01-09T07:20:28;95202.50;;;1.97;100.00
15477;BME280;7840;42.702;23.296;2023-01-09T07:22:59;95211.53;;;2.23;100.00
15477;BME280;7840;42.702;23.296;2023-01-09T07:25:35;95207.88;;;1.89;100.00
15477;BME280;7840;42.702;23.296;2023-01-09T07:28:23;95211.13;;;2.26;100.00
15477;BME280;7840;42.702;23.296;2023-01-09T07:31:38;95214.34;;;2.21;100.00
15477;BME280;7840;42.702;23.296;2023-01-09T07:34:16;95210.47;;;2.45;100.00
15477;BME280;7840;42.702;23.296;2023-01-09T08:16:26;95232.88;;;3.02;100.00
15477;BME280;7840;42.702;23.296;2023-01-09T08:18:55;95241.81;;;3.27;100.00
15477;BME280;7840;42.702;23.296;2023-01-09T08:21:26;95242.88;;;2.92;100.00
15477;BME280;7840;42.702;23.296;2023-01-09T08:23:53;95241.63;;;2.74;100.00
15477;BME280;7840;42.702;23.296;2023-01-09T08:29:14;95236.38;;;3.36;100.00
15477;BME280;7840;42.702;23.296;2023-01-09T08:34:33;95239.53;;;3.86;100.00
15477;BME280;7840;42.702;23.296;2023-01-09T08:37:40;95242.53;;;3.96;100.00
15477;BME280;7840;42.702;23.296;2023-01-09T08:40:38;95250.59;;;3.74;100.00
15477;BME280;7840;42.702;23.296;2023-01-09T08:43:10;95249.75;;;2.99;100.00
15477;BME280;7840;42.702;23.296;2023-01-09T08:45:58;95234.38;;;3.31;100.00
15477;BME280;7840;42.702;23.296;2023-01-09T08:49:00;95225.31;;;3.27;100.00
15477;BME280;7840;42.702;23.296;2023-01-09T08:51:28;95238.97;;;3.22;100.00
15477;BME280;7840;42.702;23.296;2023-01-09T08:54:22;95228.41;;;3.70;100.00
15477;BME280;7840;42.702;23.296;2023-01-09T08:56:50;95227.03;;;3.88;100.00
15477;BME280;7840;42.702;23.296;2023-01-09T08:59:21;95217.72;;;4.31;100.00
15477;BME280;7840;42.702;23.296;2023-01-09T09:01:49;95214.03;;;4.59;100.00
15477;BME280;7840;42.702;23.296;2023-01-09T09:07:52;95199.47;;;5.21;100.00
15477;BME280;7840;42.702;23.296;2023-01-09T09:11:06;95205.94;;;5.63;100.00
15477;BME280;7840;42.702;23.296;2023-01-09T09:13:35;95193.75;;;5.69;100.00
15477;BME280;7840;42.702;23.296;2023-01-09T09:16:03;95191.19;;;5.87;100.00
15477;BME280;7840;42.702;23.296;2023-01-09T09:18:46;95182.91;;;5.90;100.00
15477;BME280;7840;42.702;23.296;2023-01-09T09:21:21;95178.25;;;5.92;100.00
15477;BME280;7840;42.702;23.296;2023-01-09T09:23:58;95174.16;;;5.96;100.00
15477;BME280;7840;42.702;23.296;2023-01-09T09:26:37;95157.41;;;6.16;100.00
15477;BME280;7840;42.702;23.296;2023-01-09T09:29:04;95169.28;;;6.25;100.00
15477;BME280;7840;42.702;23.296;2023-01-09T09:31:32;95160.88;;;6.35;100.00
15477;BME280;7840;42.702;23.296;2023-01-09T09:34:01;95161.56;;;6.48;100.00
15477;BME280;7840;42.702;23.296;2023-01-09T09:36:29;95148.56;;;6.53;100.00
15477;BME280;7840;42.702;23.296;2023-01-09T09:38:58;95145.03;;;6.60;100.00
15477;BME280;7840;42.702;23.296;2023-01-09T09:41:49;95132.22;;;6.63;100.00
15477;BME280;7840;42.702;23.296;2023-01-09T09:44:53;95121.47;;;6.83;100.00
15477;BME280;7840;42.702;23.296;2023-01-09T09:47:37;95118.44;;;6.98;100.00
15477;BME280;7840;42.702;23.296;2023-01-09T09:50:34;95109.31;;;7.00;100.00
15477;BME280;7840;42.702;23.296;2023-01-09T09:53:10;95098.72;;;7.19;100.00
15477;BME280;7840;42.702;23.296;2023-01-09T09:55:40;95095.41;;;7.23;100.00
15477;BME280;7840;42.702;23.296;2023-01-09T09:58:17;95085.69;;;7.24;100.00
15477;BME280;7840;42.702;23.296;2023-01-09T10:00:48;95078.34;;;7.26;100.00
15477;BME280;7840;42.702;23.296;2023-01-09T10:03:25;95064.78;;;7.10;100.00
15477;BME280;7840;42.702;23.296;2023-01-09T10:05:54;95048.78;;;7.24;100.00
15477;BME280;7840;42.702;23.296;2023-01-09T10:08:47;95048.81;;;7.47;100.00
15477;BME280;7840;42.702;23.296;2023-01-09T10:11:36;95051.50;;;7.71;100.00
15477;BME280;7840;42.702;23.296;2023-01-09T10:14:05;95045.19;;;7.72;100.00
15477;BME280;7840;42.702;23.296;2023-01-09T10:16:41;95040.16;;;7.70;100.00
15477;BME280;7840;42.702;23.296;2023-01-09T10:19:24;95025.00;;;7.54;100.00
15477;BME280;7840;42.702;23.296;2023-01-09T10:22:04;95034.75;;;7.42;100.00
15477;BME280;7840;42.702;23.296;2023-01-09T10:58:46;94953.94;;;9.08;96.10
15477;BME280;7840;42.702;23.296;2023-01-09T11:01:15;94952.25;;;9.19;95.51
15477;BME280;7840;42.702;23.296;2023-01-09T11:03:43;94943.19;;;9.31;93.10
15477;BME280;7840;42.702;23.296;2023-01-09T11:06:31;94940.31;;;9.16;91.66
15477;BME280;7840;42.702;23.296;2023-01-09T11:09:28;94941.91;;;9.17;90.91
15477;BME280;7840;42.702;23.296;2023-01-09T11:12:31;94933.44;;;9.15;90.31
15477;BME280;7840;42.702;23.296;2023-01-09T11:15:27;94936.16;;;9.20;90.90
15477;BME280;7840;42.702;23.296;2023-01-09T11:18:31;94935.38;;;9.20;89.76
15477;BME280;7840;42.702;23.296;2023-01-09T11:21:32;94940.53;;;8.98;89.38
15477;BME280;7840;42.702;23.296;2023-01-09T11:24:28;94933.22;;;8.71;91.40
15477;BME280;7840;42.702;23.296;2023-01-09T11:27:51;94925.50;;;8.98;91.89
15477;BME280;7840;42.702;23.296;2023-01-09T11:30:49;94933.25;;;9.05;90.41
15477;BME280;7840;42.702;23.296;2023-01-09T11:33:37;94920.78;;;9.00;89.46
15477;BME280;7840;42.702;23.296;2023-01-09T11:36:35;94928.84;;;9.11;89.34
15477;BME280;7840;42.702;23.296;2023-01-09T11:39:45;94921.81;;;8.83;89.16
15477;BME280;7840;42.702;23.296;2023-01-09T11:42:31;94922.84;;;8.82;90.08
15477;BME280;7840;42.702;23.296;2023-01-09T11:45:24;94913.41;;;8.86;90.91
15477;BME280;7840;42.702;23.296;2023-01-09T11:47:55;94912.53;;;8.97;89.66
15477;BME280;7840;42.702;23.296;2023-01-09T11:51:24;94900.91;;;8.98;89.74
15477;BME280;7840;42.702;23.296;2023-01-09T11:54:16;94907.16;;;8.92;89.87
15477;BME280;7840;42.702;23.296;2023-01-09T11:57:20;94909.00;;;8.74;90.06
15477;BME280;7840;42.702;23.296;2023-01-09T12:33:39;94857.19;;;10.33;77.30
15477;BME280;7840;42.702;23.296;2023-01-09T12:36:21;94848.41;;;10.28;76.26
15477;BME280;7840;42.702;23.296;2023-01-09T12:39:42;94848.72;;;9.87;77.59
15477;BME280;7840;42.702;23.296;2023-01-09T12:42:48;94845.38;;;9.70;79.05
15477;BME280;7840;42.702;23.296;2023-01-09T12:45:38;94837.81;;;9.57;80.23
15477;BME280;7840;42.702;23.296;2023-01-09T12:52:04;94837.34;;;9.43;81.64
15477;BME280;7840;42.702;23.296;2023-01-09T12:55:11;94834.03;;;9.53;80.99
15477;BME280;7840;42.702;23.296;2023-01-09T12:58:05;94836.19;;;9.34;81.16
15477;BME280;7840;42.702;23.296;2023-01-09T13:03:40;94825.53;;;8.90;86.21
15477;BME280;7840;42.702;23.296;2023-01-09T13:06:13;94823.38;;;8.70;88.15
15477;BME280;7840;42.702;23.296;2023-01-09T13:08:46;94814.97;;;8.73;88.34
15477;BME280;7840;42.702;23.296;2023-01-09T13:11:25;94813.22;;;8.62;89.07
15477;BME280;7840;42.702;23.296;2023-01-09T13:13:58;94808.25;;;8.49;91.41
15477;BME280;7840;42.702;23.296;2023-01-09T13:16:34;94806.66;;;8.48;91.39
15477;BME280;7840;42.702;23.296;2023-01-09T13:19:15;94815.88;;;8.34;92.98
15477;BME280;7840;42.702;23.296;2023-01-09T13:21:45;94821.28;;;8.39;93.70
15477;BME280;7840;42.702;23.296;2023-01-09T13:24:41;94810.09;;;8.03;95.54
15477;BME280;7840;42.702;23.296;2023-01-09T13:27:23;94797.47;;;8.05;97.59
15477;BME280;7840;42.702;23.296;2023-01-09T13:30:07;94807.66;;;8.02;98.14
15477;BME280;7840;42.702;23.296;2023-01-09T13:32:52;94802.09;;;7.98;97.93
15477;BME280;7840;42.702;23.296;2023-01-09T13:35:23;94798.97;;;8.01;98.19
15477;BME280;7840;42.702;23.296;2023-01-09T13:37:51;94791.03;;;7.84;99.63
15477;BME280;7840;42.702;23.296;2023-01-09T13:40:36;94802.09;;;7.70;100.00
15477;BME280;7840;42.702;23.296;2023-01-09T13:43:08;94801.63;;;7.61;100.00
15477;BME280;7840;42.702;23.296;2023-01-09T13:45:43;94810.13;;;7.63;100.00
15477;BME280;7840;42.702;23.296;2023-01-09T13:48:40;94811.88;;;7.57;100.00
15477;BME280;7840;42.702;23.296;2023-01-09T13:51:54;94803.88;;;7.81;100.00
15477;BME280;7840;42.702;23.296;2023-01-09T13:55:03;94804.75;;;7.86;100.00
15477;BME280;7840;42.702;23.296;2023-01-09T13:58:27;94808.97;;;7.71;100.00
15477;BME280;7840;42.702;23.296;2023-01-09T14:07:13;94806.22;;;7.13;100.00
15477;BME280;7840;42.702;23.296;2023-01-09T14:10:24;94797.06;;;7.04;100.00
15477;BME280;7840;42.702;23.296;2023-01-09T14:12:55;94802.69;;;6.84;100.00
15477;BME280;7840;42.702;23.296;2023-01-09T14:15:28;94779.94;;;6.67;100.00
15477;BME280;7840;42.702;23.296;2023-01-09T14:17:58;94781.88;;;6.60;100.00
15477;BME280;7840;42.702;23.296;2023-01-09T14:20:32;94790.69;;;6.53;100.00
15477;BME280;7840;42.702;23.296;2023-01-09T14:23:24;94782.88;;;6.35;100.00
15477;BME280;7840;42.702;23.296;2023-01-09T14:25:55;94777.50;;;6.18;100.00
15477;BME280;7840;42.702;23.296;2023-01-09T14:28:24;94766.88;;;6.25;100.00
15477;BME280;7840;42.702;23.296;2023-01-09T14:31:07;94770.50;;;6.24;100.00
15477;BME280;7840;42.702;23.296;2023-01-09T14:33:37;94777.78;;;6.10;100.00
15477;BME280;7840;42.702;23.296;2023-01-09T14:36:11;94771.81;;;5.91;100.00
15477;BME280;7840;42.702;23.296;2023-01-09T14:38:42;94773.34;;;5.99;100.00
15477;BME280;7840;42.702;23.296;2023-01-09T14:41:52;94767.44;;;5.85;100.00
15477;BME280;7840;42.702;23.296;2023-01-09T14:44:38;94768.75;;;5.76;100.00
15477;BME280;7840;42.702;23.296;2023-01-09T14:47:27;94766.91;;;5.65;100.00
15477;BME280;7840;42.702;23.296;2023-01-09T14:52:54;94752.03;;;5.59;100.00
15477;BME280;7840;42.702;23.296;2023-01-09T14:55:47;94754.03;;;5.45;100.00
15477;BME280;7840;42.702;23.296;2023-01-09T14:58:25;94741.56;;;5.40;100.00
15477;BME280;7840;42.702;23.296;2023-01-09T15:03:43;94762.25;;;5.18;100.00
15477;BME280;7840;42.702;23.296;2023-01-09T15:06:17;94751.66;;;5.25;100.00
15477;BME280;7840;42.702;23.296;2023-01-09T15:08:48;94750.38;;;4.98;100.00
15477;BME280;7840;42.702;23.296;2023-01-09T15:11:18;94756.22;;;4.81;100.00
15477;BME280;7840;42.702;23.296;2023-01-09T15:13:52;94758.44;;;4.78;100.00
15477;BME280;7840;42.702;23.296;2023-01-09T15:16:23;94749.06;;;4.70;100.00
15477;BME280;7840;42.702;23.296;2023-01-09T15:18:57;94742.63;;;4.66;100.00
15477;BME280;7840;42.702;23.296;2023-01-09T15:21:28;94727.25;;;4.70;100.00
15477;BME280;7840;42.702;23.296;2023-01-09T15:24:11;94722.72;;;4.58;100.00
15477;BME280;7840;42.702;23.296;2023-01-09T15:26:39;94722.94;;;4.57;100.00
15477;BME280;7840;42.702;23.296;2023-01-09T15:29:14;94740.44;;;4.63;100.00
15477;BME280;7840;42.702;23.296;2023-01-09T15:31:44;94727.50;;;4.68;100.00
15477;BME280;7840;42.702;23.296;2023-01-09T15:34:26;94731.69;;;4.51;100.00
15477;BME280;7840;42.702;23.296;2023-01-09T15:36:56;94739.53;;;4.32;100.00
15477;BME280;7840;42.702;23.296;2023-01-09T15:39:26;94722.91;;;4.38;100.00
15477;BME280;7840;42.702;23.296;2023-01-09T15:41:58;94731.22;;;4.35;100.00
15477;BME280;7840;42.702;23.296;2023-01-09T15:44:48;94746.56;;;4.32;100.00
15477;BME280;7840;42.702;23.296;2023-01-09T15:47:34;94749.13;;;4.20;100.00
15477;BME280;7840;42.702;23.296;2023-01-09T15:50:03;94734.53;;;4.24;100.00
15477;BME280;7840;42.702;23.296;2023-01-09T15:52:40;94704.41;;;4.15;100.00
15477;BME280;7840;42.702;23.296;2023-01-09T15:55:22;94720.56;;;4.12;100.00
15477;BME280;7840;42.702;23.296;2023-01-09T15:57:54;94725.47;;;4.02;100.00
15477;BME280;7840;42.702;23.296;2023-01-09T16:00:40;94728.94;;;3.96;100.00
15477;BME280;7840;42.702;23.296;2023-01-09T16:03:21;94717.44;;;3.97;100.00
15477;BME280;7840;42.702;23.296;2023-01-09T16:05:52;94704.63;;;3.89;100.00
15477;BME280;7840;42.702;23.296;2023-01-09T16:08:27;94718.38;;;3.77;100.00
15477;BME280;7840;42.702;23.296;2023-01-09T16:11:19;94718.38;;;3.77;100.00
15477;BME280;7840;42.702;23.296;2023-01-09T16:13:51;94713.75;;;3.79;100.00
15477;BME280;7840;42.702;23.296;2023-01-09T16:16:38;94721.22;;;3.76;100.00
15477;BME280;7840;42.702;23.296;2023-01-09T16:19:29;94709.38;;;3.73;100.00
15477;BME280;7840;42.702;23.296;2023-01-09T16:21:57;94701.06;;;3.76;100.00
15477;BME280;7840;42.702;23.296;2023-01-09T16:24:33;94710.28;;;3.86;100.00
15477;BME280;7840;42.702;23.296;2023-01-09T16:27:34;94691.03;;;3.73;100.00
15477;BME280;7840;42.702;23.296;2023-01-09T16:30:25;94705.38;;;3.71;100.00